sensor_id;sensor_type;location;lat;lon;timestamp;P1;durP1;ratioP1;P2;durP2;ratioP2
25553;SDS011;13446;50.926;5.332;2024-03-23T00:55:27;19.15;;;4.15;;
25553;SDS011;13446;50.926;5.332;2024-03-23T00:57:53;20.48;;;4.82;;
25553;SDS011;13446;50.926;5.332;2024-03-23T01:00:19;21.42;;;4.68;;
25553;SDS011;13446;50.926;5.332;2024-03-23T01:02:44;14.73;;;4.25;;
25553;SDS011;13446;50.926;5.332;2024-03-23T01:05:10;16.63;;;4.32;;
25553;SDS011;13446;50.926;5.332;2024-03-23T01:07:36;19.85;;;4.75;;
25553;SDS011;13446;50.926;5.332;2024-03-23T01:10:02;14.05;;;3.80;;
25553;SDS011;13446;50.926;5.332;2024-03-23T01:12:27;16.42;;;4.43;;
25553;SDS011;13446;50.926;5.332;2024-03-23T01:14:53;17.48;;;4.20;;
25553;SDS011;13446;50.926;5.332;2024-03-23T01:17:19;14.55;;;3.55;;
25553;SDS011;13446;50.926;5.332;2024-03-23T01:19:44;16.58;;;3.60;;
25553;SDS011;13446;50.926;5.332;2024-03-23T01:22:11;16.65;;;4.32;;
25553;SDS011;13446;50.926;5.332;2024-03-23T01:24:38;19.85;;;4.15;;
25553;SDS011;13446;50.926;5.332;2024-03-23T01:27:03;17.35;;;3.20;;
25553;SDS011;13446;50.926;5.332;2024-03-23T01:29:29;15.70;;;2.70;;
25553;SDS011;13446;50.926;5.332;2024-03-23T01:31:55;10.65;;;2.95;;
25553;SDS011;13446;50.926;5.332;2024-03-23T01:34:21;15.05;;;3.10;;
25553;SDS011;13446;50.926;5.332;2024-03-23T01:36:47;13.23;;;3.08;;
25553;SDS011;13446;50.926;5.332;2024-03-23T01:39:12;17.67;;;3.42;;
25553;SDS011;13446;50.926;5.332;2024-03-23T01:41:39;19.70;;;3.72;;
25553;SDS011;13446;50.926;5.332;2024-03-23T01:44:07;20.52;;;3.92;;
25553;SDS011;13446;50.926;5.332;2024-03-23T01:46:33;11.15;;;3.25;;
25553;SDS011;13446;50.926;5.332;2024-03-23T01:49:00;18.95;;;3.35;;
25553;SDS011;13446;50.926;5.332;2024-03-23T01:51:26;18.80;;;3.28;;
25553;SDS011;13446;50.926;5.332;2024-03-23T01:53:53;14.10;;;3.20;;
25553;SDS011;13446;50.926;5.332;2024-03-23T01:56:21;10.13;;;3.53;;
25553;SDS011;13446;50.926;5.332;2024-03-23T01:58:48;16.95;;;4.03;;
25553;SDS011;13446;50.926;5.332;2024-03-23T02:01:13;17.38;;;4.45;;
25553;SDS011;13446;50.926;5.332;2024-03-23T02:03:39;18.08;;;3.95;;
25553;SDS011;13446;50.926;5.332;2024-03-23T02:06:06;21.42;;;3.67;;
25553;SDS011;13446;50.926;5.332;2024-03-23T02:08:33;18.88;;;4.30;;
25553;SDS011;13446;50.926;5.332;2024-03-23T02:10:59;17.80;;;4.13;;
25553;SDS011;13446;50.926;5.332;2024-03-23T02:13:25;14.38;;;4.15;;
25553;SDS011;13446;50.926;5.332;2024-03-23T02:15:51;17.20;;;3.92;;
25553;SDS011;13446;50.926;5.332;2024-03-23T02:18:17;14.65;;;4.13;;
25553;SDS011;13446;50.926;5.332;2024-03-23T02:20:43;15.07;;;3.60;;
25553;SDS011;13446;50.926;5.332;2024-03-23T02:23:15;19.27;;;3.80;;
25553;SDS011;13446;50.926;5.332;2024-03-23T02:25:42;14.70;;;4.30;;
25553;SDS011;13446;50.926;5.332;2024-03-23T02:28:09;21.40;;;3.75;;
25553;SDS011;13446;50.926;5.332;2024-03-23T02:30:34;14.75;;;4.55;;
25553;SDS011;13446;50.926;5.332;2024-03-23T02:33:00;20.23;;;4.22;;
25553;SDS011;13446;50.926;5.332;2024-03-23T02:35:26;13.25;;;4.07;;
25553;SDS011;13446;50.926;5.332;2024-03-23T02:37:52;16.73;;;4.40;;
25553;SDS011;13446;50.926;5.332;2024-03-23T02:40:19;20.70;;;3.92;;
25553;SDS011;13446;50.926;5.332;2024-03-23T02:42:45;11.60;;;3.72;;
25553;SDS011;13446;50.926;5.332;2024-03-23T02:45:11;17.48;;;3.85;;
25553;SDS011;13446;50.926;5.332;2024-03-23T02:47:37;17.50;;;4.20;;
25553;SDS011;13446;50.926;5.332;2024-03-23T02:50:03;15.35;;;4.10;;
25553;SDS011;13446;50.926;5.332;2024-03-23T02:52:29;19.10;;;4.28;;
25553;SDS011;13446;50.926;5.332;2024-03-23T02:54:55;19.58;;;4.88;;
25553;SDS011;13446;50.926;5.332;2024-03-23T02:57:21;20.45;;;5.10;;
25553;SDS011;13446;50.926;5.332;2024-03-23T02:59:47;20.85;;;4.65;;
25553;SDS011;13446;50.926;5.332;2024-03-23T03:02:13;19.70;;;4.43;;
25553;SDS011;13446;50.926;5.332;2024-03-23T03:04:39;16.48;;;4.00;;
25553;SDS011;13446;50.926;5.332;2024-03-23T03:07:04;18.75;;;4.57;;
25553;SDS011;13446;50.926;5.332;2024-03-23T03:09:30;20.60;;;4.43;;
25553;SDS011;13446;50.926;5.332;2024-03-23T03:11:56;18.83;;;4.47;;
25553;SDS011;13446;50.926;5.332;2024-03-23T03:14:22;17.05;;;3.95;;
25553;SDS011;13446;50.926;5.332;2024-03-23T03:16:48;21.38;;;4.65;;
25553;SDS011;13446;50.926;5.332;2024-03-23T03:19:13;19.75;;;4.38;;
25553;SDS011;13446;50.926;5.332;2024-03-23T03:21:41;19.67;;;5.00;;
25553;SDS011;13446;50.926;5.332;2024-03-23T03:24:07;19.60;;;4.97;;
25553;SDS011;13446;50.926;5.332;2024-03-23T03:26:32;16.77;;;4.30;;
25553;SDS011;13446;50.926;5.332;2024-03-23T03:28:58;22.75;;;4.50;;
25553;SDS011;13446;50.926;5.332;2024-03-23T03:31:24;16.15;;;4.07;;
25553;SDS011;13446;50.926;5.332;2024-03-23T03:33:50;15.77;;;3.35;;
25553;SDS011;13446;50.926;5.332;2024-03-23T03:36:16;10.07;;;3.97;;
25553;SDS011;13446;50.926;5.332;2024-03-23T03:38:42;18.02;;;3.90;;
25553;SDS011;13446;50.926;5.332;2024-03-23T03:41:07;20.38;;;4.43;;
25553;SDS011;13446;50.926;5.332;2024-03-23T03:43:33;14.98;;;3.50;;
25553;SDS011;13446;50.926;5.332;2024-03-23T03:46:00;21.35;;;3.58;;
25553;SDS011;13446;50.926;5.332;2024-03-23T03:48:26;18.60;;;4.32;;
25553;SDS011;13446;50.926;5.332;2024-03-23T03:50:52;16.98;;;3.70;;
25553;SDS011;13446;50.926;5.332;2024-03-23T03:53:18;15.07;;;3.67;;
25553;SDS011;13446;50.926;5.332;2024-03-23T03:55:44;13.18;;;3.50;;
25553;SDS011;13446;50.926;5.332;2024-03-23T03:58:10;15.98;;;3.85;;
25553;SDS011;13446;50.926;5.332;2024-03-23T04:00:35;12.82;;;3.53;;
25553;SDS011;13446;50.926;5.332;2024-03-23T04:03:01;15.02;;;3.88;;
25553;SDS011;13446;50.926;5.332;2024-03-23T04:05:27;20.00;;;4.00;;
25553;SDS011;13446;50.926;5.332;2024-03-23T04:07:53;15.15;;;3.78;;
25553;SDS011;13446;50.926;5.332;2024-03-23T04:10:19;16.90;;;4.00;;
25553;SDS011;13446;50.926;5.332;2024-03-23T04:12:46;16.33;;;4.40;;
25553;SDS011;13446;50.926;5.332;2024-03-23T04:15:12;17.40;;;4.40;;
25553;SDS011;13446;50.926;5.332;2024-03-23T04:17:38;16.10;;;4.40;;
25553;SDS011;13446;50.926;5.332;2024-03-23T04:20:04;22.85;;;4.50;;
25553;SDS011;13446;50.926;5.332;2024-03-23T04:22:34;21.90;;;5.30;;
25553;SDS011;13446;50.926;5.332;2024-03-23T04:25:00;22.30;;;4.68;;
25553;SDS011;13446;50.926;5.332;2024-03-23T04:27:37;15.57;;;5.07;;
25553;SDS011;13446;50.926;5.332;2024-03-23T04:30:03;18.05;;;4.80;;
25553;SDS011;13446;50.926;5.332;2024-03-23T04:32:34;16.10;;;4.82;;
25553;SDS011;13446;50.926;5.332;2024-03-23T04:35:00;20.98;;;5.07;;
25553;SDS011;13446;50.926;5.332;2024-03-23T04:37:26;23.42;;;5.60;;
25553;SDS011;13446;50.926;5.332;2024-03-23T04:39:52;16.55;;;5.40;;
25553;SDS011;13446;50.926;5.332;2024-03-23T04:42:17;19.23;;;5.45;;
25553;SDS011;13446;50.926;5.332;2024-03-23T04:44:43;17.48;;;5.60;;
25553;SDS011;13446;50.926;5.332;2024-03-23T04:47:09;18.42;;;6.03;;
25553;SDS011;13446;50.926;5.332;2024-03-23T04:49:36;20.60;;;5.63;;
25553;SDS011;13446;50.926;5.332;2024-03-23T04:52:04;17.13;;;5.40;;
25553;SDS011;13446;50.926;5.332;2024-03-23T04:54:30;21.02;;;6.18;;
25553;SDS011;13446;50.926;5.332;2024-03-23T04:56:57;17.98;;;5.72;;
25553;SDS011;13446;50.926;5.332;2024-03-23T04:59:23;26.30;;;6.97;;
25553;SDS011;13446;50.926;5.332;2024-03-23T05:01:49;18.98;;;6.72;;
25553;SDS011;13446;50.926;5.332;2024-03-23T05:04:14;21.92;;;6.70;;
25553;SDS011;13446;50.926;5.332;2024-03-23T05:06:40;22.75;;;6.93;;
25553;SDS011;13446;50.926;5.332;2024-03-23T05:09:06;21.15;;;6.90;;
25553;SDS011;13446;50.926;5.332;2024-03-23T05:11:32;22.13;;;7.20;;
25553;SDS011;13446;50.926;5.332;2024-03-23T05:13:59;23.17;;;7.38;;
25553;SDS011;13446;50.926;5.332;2024-03-23T05:16:26;24.27;;;7.15;;
25553;SDS011;13446;50.926;5.332;2024-03-23T05:18:51;21.85;;;8.45;;
25553;SDS011;13446;50.926;5.332;2024-03-23T05:21:17;27.60;;;8.35;;
25553;SDS011;13446;50.926;5.332;2024-03-23T05:23:43;32.38;;;8.68;;
25553;SDS011;13446;50.926;5.332;2024-03-23T05:26:09;30.02;;;9.23;;
25553;SDS011;13446;50.926;5.332;2024-03-23T05:28:35;29.35;;;9.55;;
25553;SDS011;13446;50.926;5.332;2024-03-23T05:31:01;38.03;;;9.30;;
25553;SDS011;13446;50.926;5.332;2024-03-23T05:33:26;32.92;;;9.40;;
25553;SDS011;13446;50.926;5.332;2024-03-23T05:35:58;27.13;;;9.57;;
25553;SDS011;13446;50.926;5.332;2024-03-23T05:38:26;28.85;;;9.82;;
25553;SDS011;13446;50.926;5.332;2024-03-23T05:40:53;29.02;;;9.50;;
25553;SDS011;13446;50.926;5.332;2024-03-23T05:43:19;27.58;;;9.27;;
25553;SDS011;13446;50.926;5.332;2024-03-23T05:45:45;28.35;;;9.55;;
25553;SDS011;13446;50.926;5.332;2024-03-23T05:48:10;27.98;;;9.07;;
25553;SDS011;13446;50.926;5.332;2024-03-23T05:50:36;26.27;;;9.82;;
25553;SDS011;13446;50.926;5.332;2024-03-23T05:53:02;25.30;;;9.02;;
25553;SDS011;13446;50.926;5.332;2024-03-23T05:55:29;29.60;;;9.07;;
25553;SDS011;13446;50.926;5.332;2024-03-23T05:57:55;30.05;;;9.40;;
25553;SDS011;13446;50.926;5.332;2024-03-23T06:00:21;28.88;;;9.25;;
25553;SDS011;13446;50.926;5.332;2024-03-23T06:02:47;28.95;;;9.13;;
25553;SDS011;13446;50.926;5.332;2024-03-23T06:05:12;26.20;;;8.90;;
25553;SDS011;13446;50.926;5.332;2024-03-23T06:07:39;24.15;;;8.40;;
25553;SDS011;13446;50.926;5.332;2024-03-23T06:10:05;25.13;;;8.57;;
25553;SDS011;13446;50.926;5.332;2024-03-23T06:12:31;26.15;;;9.15;;
25553;SDS011;13446;50.926;5.332;2024-03-23T06:14:57;25.17;;;8.52;;
25553;SDS011;13446;50.926;5.332;2024-03-23T06:17:23;26.17;;;8.02;;
25553;SDS011;13446;50.926;5.332;2024-03-23T06:19:48;21.25;;;7.57;;
25553;SDS011;13446;50.926;5.332;2024-03-23T06:22:14;24.95;;;7.18;;
25553;SDS011;13446;50.926;5.332;2024-03-23T06:24:40;17.15;;;6.82;;
25553;SDS011;13446;50.926;5.332;2024-03-23T06:27:06;27.90;;;7.53;;
25553;SDS011;13446;50.926;5.332;2024-03-23T06:29:32;21.13;;;7.40;;
25553;SDS011;13446;50.926;5.332;2024-03-23T06:31:57;20.95;;;7.00;;
25553;SDS011;13446;50.926;5.332;2024-03-23T06:34:24;20.92;;;6.70;;
25553;SDS011;13446;50.926;5.332;2024-03-23T06:36:49;18.80;;;6.95;;
25553;SDS011;13446;50.926;5.332;2024-03-23T06:39:15;23.88;;;7.72;;
25553;SDS011;13446;50.926;5.332;2024-03-23T06:41:42;25.00;;;7.07;;
25553;SDS011;13446;50.926;5.332;2024-03-23T06:44:08;22.08;;;6.93;;
25553;SDS011;13446;50.926;5.332;2024-03-23T06:46:33;23.42;;;6.63;;
25553;SDS011;13446;50.926;5.332;2024-03-23T06:48:59;17.67;;;6.22;;
25553;SDS011;13446;50.926;5.332;2024-03-23T06:51:25;15.93;;;6.10;;
25553;SDS011;13446;50.926;5.332;2024-03-23T06:53:51;17.20;;;5.82;;
25553;SDS011;13446;50.926;5.332;2024-03-23T06:56:16;15.65;;;5.38;;
25553;SDS011;13446;50.926;5.332;2024-03-23T06:58:42;19.38;;;6.32;;
25553;SDS011;13446;50.926;5.332;2024-03-23T07:01:08;16.90;;;5.68;;
25553;SDS011;13446;50.926;5.332;2024-03-23T07:03:33;24.17;;;6.78;;
25553;SDS011;13446;50.926;5.332;2024-03-23T07:05:59;20.52;;;6.32;;
25553;SDS011;13446;50.926;5.332;2024-03-23T07:08:24;19.85;;;6.45;;
25553;SDS011;13446;50.926;5.332;2024-03-23T07:10:50;20.77;;;6.90;;
25553;SDS011;13446;50.926;5.332;2024-03-23T07:13:16;19.20;;;6.75;;
25553;SDS011;13446;50.926;5.332;2024-03-23T07:15:42;17.98;;;6.90;;
25553;SDS011;13446;50.926;5.332;2024-03-23T07:18:08;18.70;;;6.28;;
25553;SDS011;13446;50.926;5.332;2024-03-23T07:20:33;22.13;;;6.15;;
25553;SDS011;13446;50.926;5.332;2024-03-23T07:22:59;16.13;;;5.25;;
25553;SDS011;13446;50.926;5.332;2024-03-23T07:25:25;15.45;;;6.30;;
25553;SDS011;13446;50.926;5.332;2024-03-23T07:27:53;12.85;;;4.97;;
25553;SDS011;13446;50.926;5.332;2024-03-23T07:30:18;21.30;;;5.07;;
25553;SDS011;13446;50.926;5.332;2024-03-23T07:32:44;12.48;;;5.35;;
25553;SDS011;13446;50.926;5.332;2024-03-23T07:35:10;24.05;;;5.53;;
25553;SDS011;13446;50.926;5.332;2024-03-23T07:37:36;15.73;;;4.72;;
25553;SDS011;13446;50.926;5.332;2024-03-23T07:40:01;19.65;;;4.75;;
25553;SDS011;13446;50.926;5.332;2024-03-23T07:42:27;17.20;;;4.63;;
25553;SDS011;13446;50.926;5.332;2024-03-23T07:44:54;19.42;;;4.40;;
25553;SDS011;13446;50.926;5.332;2024-03-23T07:47:21;14.48;;;5.05;;
25553;SDS011;13446;50.926;5.332;2024-03-23T07:49:47;13.98;;;4.05;;
25553;SDS011;13446;50.926;5.332;2024-03-23T07:52:13;17.15;;;4.50;;
25553;SDS011;13446;50.926;5.332;2024-03-23T07:54:39;19.80;;;4.10;;
25553;SDS011;13446;50.926;5.332;2024-03-23T07:57:05;9.85;;;3.83;;
25553;SDS011;13446;50.926;5.332;2024-03-23T07:59:31;15.15;;;3.63;;
25553;SDS011;13446;50.926;5.332;2024-03-23T08:01:58;15.45;;;3.55;;
25553;SDS011;13446;50.926;5.332;2024-03-23T08:04:25;21.27;;;3.38;;
25553;SDS011;13446;50.926;5.332;2024-03-23T08:06:52;18.08;;;3.60;;
25553;SDS011;13446;50.926;5.332;2024-03-23T08:09:18;13.02;;;3.33;;
25553;SDS011;13446;50.926;5.332;2024-03-23T08:11:45;15.55;;;3.97;;
25553;SDS011;13446;50.926;5.332;2024-03-23T08:14:11;13.93;;;3.30;;
25553;SDS011;13446;50.926;5.332;2024-03-23T08:16:37;12.35;;;3.72;;
25553;SDS011;13446;50.926;5.332;2024-03-23T08:19:03;14.80;;;3.25;;
25553;SDS011;13446;50.926;5.332;2024-03-23T08:21:28;9.93;;;2.95;;
25553;SDS011;13446;50.926;5.332;2024-03-23T08:23:54;15.95;;;3.00;;
25553;SDS011;13446;50.926;5.332;2024-03-23T08:26:20;15.25;;;3.00;;
25553;SDS011;13446;50.926;5.332;2024-03-23T08:28:45;18.65;;;3.65;;
25553;SDS011;13446;50.926;5.332;2024-03-23T08:31:13;15.85;;;3.10;;
25553;SDS011;13446;50.926;5.332;2024-03-23T08:33:39;10.45;;;2.90;;
25553;SDS011;13446;50.926;5.332;2024-03-23T08:36:08;21.52;;;3.83;;
25553;SDS011;13446;50.926;5.332;2024-03-23T08:38:35;17.10;;;3.28;;
25553;SDS011;13446;50.926;5.332;2024-03-23T08:41:01;10.45;;;2.72;;
25553;SDS011;13446;50.926;5.332;2024-03-23T08:43:32;14.15;;;3.40;;
25553;SDS011;13446;50.926;5.332;2024-03-23T08:46:18;13.07;;;2.90;;
25553;SDS011;13446;50.926;5.332;2024-03-23T08:48:44;12.00;;;3.30;;
25553;SDS011;13446;50.926;5.332;2024-03-23T08:51:12;13.75;;;2.53;;
25553;SDS011;13446;50.926;5.332;2024-03-23T08:53:39;9.75;;;2.42;;
25553;SDS011;13446;50.926;5.332;2024-03-23T08:56:05;13.05;;;2.25;;
25553;SDS011;13446;50.926;5.332;2024-03-23T08:58:33;8.20;;;2.17;;
25553;SDS011;13446;50.926;5.332;2024-03-23T09:01:09;7.50;;;2.00;;
25553;SDS011;13446;50.926;5.332;2024-03-23T09:03:35;9.02;;;2.10;;
25553;SDS011;13446;50.926;5.332;2024-03-23T09:06:02;9.40;;;2.08;;
25553;SDS011;13446;50.926;5.332;2024-03-23T09:08:32;8.45;;;2.25;;
25553;SDS011;13446;50.926;5.332;2024-03-23T09:10:58;6.63;;;1.85;;
25553;SDS011;13446;50.926;5.332;2024-03-23T09:13:30;10.82;;;2.10;;
25553;SDS011;13446;50.926;5.332;2024-03-23T09:15:57;9.90;;;1.85;;
25553;SDS011;13446;50.926;5.332;2024-03-23T09:18:23;16.52;;;2.28;;
25553;SDS011;13446;50.926;5.332;2024-03-23T09:20:49;10.75;;;2.22;;
25553;SDS011;13446;50.926;5.332;2024-03-23T09:23:14;9.02;;;1.95;;
25553;SDS011;13446;50.926;5.332;2024-03-23T09:25:40;11.55;;;2.30;;
25553;SDS011;13446;50.926;5.332;2024-03-23T09:28:06;9.35;;;2.08;;
25553;SDS011;13446;50.926;5.332;2024-03-23T09:30:33;7.43;;;2.30;;
25553;SDS011;13446;50.926;5.332;2024-03-23T09:33:00;10.00;;;2.10;;
25553;SDS011;13446;50.926;5.332;2024-03-23T09:35:26;11.55;;;2.58;;
25553;SDS011;13446;50.926;5.332;2024-03-23T09:37:52;10.90;;;2.70;;
25553;SDS011;13446;50.926;5.332;2024-03-23T09:40:17;10.65;;;2.50;;
25553;SDS011;13446;50.926;5.332;2024-03-23T09:42:43;10.95;;;2.42;;
25553;SDS011;13446;50.926;5.332;2024-03-23T09:45:22;14.50;;;2.20;;
25553;SDS011;13446;50.926;5.332;2024-03-23T09:47:52;11.63;;;2.83;;
25553;SDS011;13446;50.926;5.332;2024-03-23T09:50:18;9.95;;;2.22;;
25553;SDS011;13446;50.926;5.332;2024-03-23T09:52:45;10.93;;;3.47;;
25553;SDS011;13446;50.926;5.332;2024-03-23T09:55:11;15.20;;;2.72;;
25553;SDS011;13446;50.926;5.332;2024-03-23T09:57:38;12.05;;;1.95;;
25553;SDS011;13446;50.926;5.332;2024-03-23T10:00:04;11.52;;;2.55;;
25553;SDS011;13446;50.926;5.332;2024-03-23T10:02:31;13.40;;;2.20;;
25553;SDS011;13446;50.926;5.332;2024-03-23T10:04:57;8.98;;;2.35;;
25553;SDS011;13446;50.926;5.332;2024-03-23T10:07:23;6.38;;;2.03;;
25553;SDS011;13446;50.926;5.332;2024-03-23T10:09:50;9.57;;;2.22;;
25553;SDS011;13446;50.926;5.332;2024-03-23T10:12:17;10.77;;;2.20;;
25553;SDS011;13446;50.926;5.332;2024-03-23T10:14:44;11.30;;;2.47;;
25553;SDS011;13446;50.926;5.332;2024-03-23T10:17:14;13.38;;;2.67;;
25553;SDS011;13446;50.926;5.332;2024-03-23T10:19:43;11.70;;;2.50;;
25553;SDS011;13446;50.926;5.332;2024-03-23T10:22:12;10.05;;;2.10;;
25553;SDS011;13446;50.926;5.332;2024-03-23T10:24:39;10.27;;;1.73;;
25553;SDS011;13446;50.926;5.332;2024-03-23T10:27:05;11.15;;;2.05;;
25553;SDS011;13446;50.926;5.332;2024-03-23T10:29:30;7.90;;;1.90;;
25553;SDS011;13446;50.926;5.332;2024-03-23T10:32:12;7.40;;;1.90;;
25553;SDS011;13446;50.926;5.332;2024-03-23T10:34:41;11.43;;;2.25;;
25553;SDS011;13446;50.926;5.332;2024-03-23T10:37:07;5.68;;;1.52;;
25553;SDS011;13446;50.926;5.332;2024-03-23T10:39:34;7.00;;;1.70;;
25553;SDS011;13446;50.926;5.332;2024-03-23T10:42:02;7.80;;;1.73;;
25553;SDS011;13446;50.926;5.332;2024-03-23T10:44:29;10.70;;;2.45;;
25553;SDS011;13446;50.926;5.332;2024-03-23T10:46:56;6.18;;;1.67;;
25553;SDS011;13446;50.926;5.332;2024-03-23T10:49:26;11.73;;;1.98;;
25553;SDS011;13446;50.926;5.332;2024-03-23T10:51:54;8.68;;;1.88;;
25553;SDS011;13446;50.926;5.332;2024-03-23T10:54:32;7.65;;;1.63;;
25553;SDS011;13446;50.926;5.332;2024-03-23T10:57:12;3.40;;;1.05;;
25553;SDS011;13446;50.926;5.332;2024-03-23T10:59:42;4.25;;;2.60;;
25553;SDS011;13446;50.926;5.332;2024-03-23T11:02:18;2.22;;;0.93;;
25553;SDS011;13446;50.926;5.332;2024-03-23T11:04:45;7.93;;;1.10;;
25553;SDS011;13446;50.926;5.332;2024-03-23T11:09:49;6.57;;;1.05;;
25553;SDS011;13446;50.926;5.332;2024-03-23T11:12:18;7.32;;;1.60;;
25553;SDS011;13446;50.926;5.332;2024-03-23T11:15:06;6.93;;;1.42;;
25553;SDS011;13446;50.926;5.332;2024-03-23T11:17:38;5.97;;;1.50;;
25553;SDS011;13446;50.926;5.332;2024-03-23T11:20:04;8.90;;;1.80;;
25553;SDS011;13446;50.926;5.332;2024-03-23T11:22:46;8.43;;;1.50;;
25553;SDS011;13446;50.926;5.332;2024-03-23T11:25:22;7.90;;;1.33;;
25553;SDS011;13446;50.926;5.332;2024-03-23T11:27:50;5.75;;;1.60;;
25553;SDS011;13446;50.926;5.332;2024-03-23T11:32:47;3.33;;;1.20;;
25553;SDS011;13446;50.926;5.332;2024-03-23T11:35:27;6.20;;;1.58;;
25553;SDS011;13446;50.926;5.332;2024-03-23T11:40:34;7.13;;;1.30;;
25553;SDS011;13446;50.926;5.332;2024-03-23T11:43:02;3.75;;;1.30;;
25553;SDS011;13446;50.926;5.332;2024-03-23T11:45:49;7.25;;;1.40;;
25553;SDS011;13446;50.926;5.332;2024-03-23T11:48:20;6.45;;;1.33;;
25553;SDS011;13446;50.926;5.332;2024-03-23T11:50:49;7.20;;;1.90;;
25553;SDS011;13446;50.926;5.332;2024-03-23T11:53:16;9.05;;;1.98;;
25553;SDS011;13446;50.926;5.332;2024-03-23T11:58:21;10.90;;;1.98;;
25553;SDS011;13446;50.926;5.332;2024-03-23T12:00:50;12.40;;;2.13;;
25553;SDS011;13446;50.926;5.332;2024-03-23T12:03:23;3.05;;;1.17;;
25553;SDS011;13446;50.926;5.332;2024-03-23T12:06:00;4.70;;;0.93;;
25553;SDS011;13446;50.926;5.332;2024-03-23T12:08:31;3.85;;;0.82;;
25553;SDS011;13446;50.926;5.332;2024-03-23T12:11:05;3.83;;;0.90;;
25553;SDS011;13446;50.926;5.332;2024-03-23T12:13:32;4.25;;;0.93;;
25553;SDS011;13446;50.926;5.332;2024-03-23T12:18:46;3.72;;;0.98;;
25553;SDS011;13446;50.926;5.332;2024-03-23T12:21:17;3.92;;;1.25;;
25553;SDS011;13446;50.926;5.332;2024-03-23T12:23:42;5.25;;;1.30;;
25553;SDS011;13446;50.926;5.332;2024-03-23T12:26:10;2.72;;;1.17;;
25553;SDS011;13446;50.926;5.332;2024-03-23T12:28:36;7.15;;;0.90;;
25553;SDS011;13446;50.926;5.332;2024-03-23T12:31:02;3.10;;;1.20;;
25553;SDS011;13446;50.926;5.332;2024-03-23T12:33:28;3.53;;;1.40;;
25553;SDS011;13446;50.926;5.332;2024-03-23T12:35:54;3.08;;;1.40;;
25553;SDS011;13446;50.926;5.332;2024-03-23T12:38:19;4.68;;;1.42;;
25553;SDS011;13446;50.926;5.332;2024-03-23T12:40:48;3.97;;;1.30;;
25553;SDS011;13446;50.926;5.332;2024-03-23T12:43:15;10.43;;;2.13;;
25553;SDS011;13446;50.926;5.332;2024-03-23T12:45:45;6.30;;;1.70;;
25553;SDS011;13446;50.926;5.332;2024-03-23T12:48:14;8.15;;;1.70;;
25553;SDS011;13446;50.926;5.332;2024-03-23T12:50:40;9.52;;;2.00;;
25553;SDS011;13446;50.926;5.332;2024-03-23T12:53:06;8.73;;;2.17;;
25553;SDS011;13446;50.926;5.332;2024-03-23T12:55:32;6.97;;;2.00;;
25553;SDS011;13446;50.926;5.332;2024-03-23T12:57:59;7.25;;;2.00;;
25553;SDS011;13446;50.926;5.332;2024-03-23T13:00:25;13.25;;;1.90;;
25553;SDS011;13446;50.926;5.332;2024-03-23T13:02:51;9.35;;;2.15;;
25553;SDS011;13446;50.926;5.332;2024-03-23T13:05:16;7.07;;;1.90;;
25553;SDS011;13446;50.926;5.332;2024-03-23T13:07:42;3.33;;;1.30;;
25553;SDS011;13446;50.926;5.332;2024-03-23T13:10:08;4.90;;;1.10;;
25553;SDS011;13446;50.926;5.332;2024-03-23T13:12:34;4.82;;;1.42;;
25553;SDS011;13446;50.926;5.332;2024-03-23T13:15:00;3.72;;;1.48;;
25553;SDS011;13446;50.926;5.332;2024-03-23T13:17:26;9.18;;;1.73;;
25553;SDS011;13446;50.926;5.332;2024-03-23T13:19:54;9.88;;;1.60;;
25553;SDS011;13446;50.926;5.332;2024-03-23T13:22:23;8.07;;;1.77;;
25553;SDS011;13446;50.926;5.332;2024-03-23T13:24:48;43.65;;;3.97;;
25553;SDS011;13446;50.926;5.332;2024-03-23T13:27:15;28.40;;;2.58;;
25553;SDS011;13446;50.926;5.332;2024-03-23T13:29:40;21.17;;;2.40;;
25553;SDS011;13446;50.926;5.332;2024-03-23T13:32:06;9.32;;;1.55;;
25553;SDS011;13446;50.926;5.332;2024-03-23T13:34:33;7.28;;;1.55;;
25553;SDS011;13446;50.926;5.332;2024-03-23T13:37:00;7.45;;;1.45;;
25553;SDS011;13446;50.926;5.332;2024-03-23T13:39:27;10.02;;;1.50;;
25553;SDS011;13446;50.926;5.332;2024-03-23T13:41:53;13.45;;;1.58;;
25553;SDS011;13446;50.926;5.332;2024-03-23T13:44:22;4.97;;;1.50;;
25553;SDS011;13446;50.926;5.332;2024-03-23T13:46:49;6.57;;;1.63;;
25553;SDS011;13446;50.926;5.332;2024-03-23T13:49:26;6.93;;;1.48;;
25553;SDS011;13446;50.926;5.332;2024-03-23T13:51:54;6.88;;;1.52;;
25553;SDS011;13446;50.926;5.332;2024-03-23T13:54:20;4.57;;;1.05;;
25553;SDS011;13446;50.926;5.332;2024-03-23T13:56:50;9.65;;;3.15;;
25553;SDS011;13446;50.926;5.332;2024-03-23T13:59:16;5.30;;;1.45;;
25553;SDS011;13446;50.926;5.332;2024-03-23T14:01:42;4.07;;;1.05;;
25553;SDS011;13446;50.926;5.332;2024-03-23T14:04:08;3.15;;;0.77;;
25553;SDS011;13446;50.926;5.332;2024-03-23T14:06:34;3.35;;;0.93;;
25553;SDS011;13446;50.926;5.332;2024-03-23T14:09:00;3.85;;;1.20;;
25553;SDS011;13446;50.926;5.332;2024-03-23T14:11:26;4.90;;;1.33;;
25553;SDS011;13446;50.926;5.332;2024-03-23T14:13:53;4.22;;;1.05;;
25553;SDS011;13446;50.926;5.332;2024-03-23T14:16:19;5.22;;;1.30;;
25553;SDS011;13446;50.926;5.332;2024-03-23T14:18:48;3.38;;;1.00;;
25553;SDS011;13446;50.926;5.332;2024-03-23T14:21:14;2.55;;;0.70;;
25553;SDS011;13446;50.926;5.332;2024-03-23T14:23:39;2.85;;;0.60;;
25553;SDS011;13446;50.926;5.332;2024-03-23T14:26:06;3.97;;;0.60;;
25553;SDS011;13446;50.926;5.332;2024-03-23T14:28:32;1.95;;;0.73;;
25553;SDS011;13446;50.926;5.332;2024-03-23T14:30:57;2.75;;;0.57;;
25553;SDS011;13446;50.926;5.332;2024-03-23T14:33:24;10.15;;;0.93;;
25553;SDS011;13446;50.926;5.332;2024-03-23T14:35:56;5.72;;;1.08;;
25553;SDS011;13446;50.926;5.332;2024-03-23T14:38:22;7.70;;;0.85;;
25553;SDS011;13446;50.926;5.332;2024-03-23T14:40:48;6.78;;;1.10;;
25553;SDS011;13446;50.926;5.332;2024-03-23T14:43:14;9.57;;;1.40;;
25553;SDS011;13446;50.926;5.332;2024-03-23T14:46:05;8.40;;;1.45;;
25553;SDS011;13446;50.926;5.332;2024-03-23T14:48:35;7.75;;;1.55;;
25553;SDS011;13446;50.926;5.332;2024-03-23T14:51:02;4.75;;;1.13;;
25553;SDS011;13446;50.926;5.332;2024-03-23T14:53:34;5.50;;;1.67;;
25553;SDS011;13446;50.926;5.332;2024-03-23T14:56:02;8.60;;;2.33;;
25553;SDS011;13446;50.926;5.332;2024-03-23T14:58:28;3.88;;;1.67;;
25553;SDS011;13446;50.926;5.332;2024-03-23T15:01:01;8.18;;;1.77;;
25553;SDS011;13446;50.926;5.332;2024-03-23T15:03:30;5.47;;;1.83;;
25553;SDS011;13446;50.926;5.332;2024-03-23T15:05:56;5.93;;;2.05;;
25553;SDS011;13446;50.926;5.332;2024-03-23T15:08:24;7.35;;;1.60;;
25553;SDS011;13446;50.926;5.332;2024-03-23T15:10:50;2.50;;;1.10;;
25553;SDS011;13446;50.926;5.332;2024-03-23T15:13:16;8.25;;;1.67;;
25553;SDS011;13446;50.926;5.332;2024-03-23T15:15:42;7.93;;;1.75;;
25553;SDS011;13446;50.926;5.332;2024-03-23T15:18:13;7.38;;;1.02;;
25553;SDS011;13446;50.926;5.332;2024-03-23T15:23:18;2.30;;;0.85;;
25553;SDS011;13446;50.926;5.332;2024-03-23T15:25:44;3.83;;;0.95;;
25553;SDS011;13446;50.926;5.332;2024-03-23T15:28:10;3.08;;;0.85;;
25553;SDS011;13446;50.926;5.332;2024-03-23T15:30:35;6.50;;;1.25;;
25553;SDS011;13446;50.926;5.332;2024-03-23T15:33:01;8.00;;;1.20;;
25553;SDS011;13446;50.926;5.332;2024-03-23T15:35:27;4.70;;;1.10;;
25553;SDS011;13446;50.926;5.332;2024-03-23T15:37:53;6.55;;;1.10;;
25553;SDS011;13446;50.926;5.332;2024-03-23T15:40:18;3.47;;;1.08;;
25553;SDS011;13446;50.926;5.332;2024-03-23T15:42:47;4.93;;;0.93;;
25553;SDS011;13446;50.926;5.332;2024-03-23T15:45:13;3.78;;;0.80;;
25553;SDS011;13446;50.926;5.332;2024-03-23T15:47:40;7.75;;;1.02;;